createdAt,value
2023-01-08T00:01:07.448Z,16.64
2023-01-08T00:03:35.596Z,17.03
2023-01-08T00:06:07.296Z,16.34
2023-01-08T00:08:35.574Z,16.29
2023-01-08T00:11:03.483Z,17.45
2023-01-08T00:13:31.412Z,17.70
2023-01-08T00:16:04.449Z,17.94
2023-01-08T00:18:32.428Z,17.77
2023-01-08T00:21:00.965Z,17.69
2023-01-08T00:23:30.235Z,17.08
2023-01-08T00:25:58.233Z,17.37
2023-01-08T00:28:26.284Z,17.13
2023-01-08T00:30:54.198Z,17.73
2023-01-08T00:33:22.229Z,17.97
2023-01-08T00:35:50.106Z,17.54
2023-01-08T00:38:17.937Z,18.05
2023-01-08T00:40:49.608Z,18.50
2023-01-08T00:43:17.510Z,18.26
2023-01-08T00:45:45.477Z,18.57
2023-01-08T00:48:13.392Z,17.50
2023-01-08T00:50:41.237Z,17.45
2023-01-08T00:53:09.236Z,17.51
2023-01-08T00:55:37.091Z,17.94
2023-01-08T00:58:06.331Z,17.88
2023-01-08T01:00:34.194Z,18.44
2023-01-08T01:03:02.080Z,18.14
2023-01-08T01:05:30.012Z,18.08
2023-01-08T01:07:58.362Z,19.09
2023-01-08T01:10:26.241Z,18.65
2023-01-08T01:12:54.109Z,18.47
2023-01-08T01:15:23.359Z,17.75
2023-01-08T01:17:51.209Z,17.57
2023-01-08T01:20:19.226Z,17.70
2023-01-08T01:22:47.144Z,16.83
2023-01-08T01:25:15.095Z,17.30
2023-01-08T01:27:43.597Z,17.35
2023-01-08T01:30:12.551Z,18.06
2023-01-08T01:32:41.830Z,17.28
2023-01-08T01:35:10.258Z,17.07
2023-01-08T01:37:38.190Z,16.75
2023-01-08T01:40:07.240Z,17.34
2023-01-08T01:42:40.982Z,17.55
2023-01-08T01:45:18.820Z,17.79
2023-01-08T01:47:52.937Z,17.75
2023-01-08T01:50:28.821Z,17.71
2023-01-08T01:53:02.999Z,17.52
2023-01-08T01:55:32.899Z,18.40
2023-01-08T01:58:07.272Z,18.24
2023-01-08T02:00:35.870Z,19.26
2023-01-08T02:03:06.905Z,20.57
2023-01-08T02:05:45.719Z,20.96
2023-01-08T02:08:19.452Z,20.33
2023-01-08T02:10:54.878Z,19.91
2023-01-08T02:13:28.122Z,21.62
2023-01-08T02:16:02.084Z,20.73
2023-01-08T02:18:39.697Z,21.50
2023-01-08T02:21:14.393Z,20.86
2023-01-08T02:23:50.420Z,21.22
2023-01-08T02:26:26.037Z,20.41
2023-01-08T02:28:59.956Z,21.17
2023-01-08T02:31:32.039Z,21.38
2023-01-08T02:34:00.215Z,21.88
2023-01-08T02:36:39.239Z,20.33
2023-01-08T02:39:29.107Z,19.72
2023-01-08T02:42:06.916Z,21.29
2023-01-08T02:44:57.064Z,20.57
2023-01-08T02:47:32.299Z,20.26
2023-01-08T02:50:12.269Z,20.19
2023-01-08T02:52:49.769Z,19.92
2023-01-08T02:55:22.061Z,20.04
2023-01-08T02:57:52.932Z,19.93
2023-01-08T03:00:22.805Z,19.71
2023-01-08T03:03:02.508Z,19.38
2023-01-08T03:05:30.570Z,19.09
2023-01-08T03:07:58.985Z,18.92
2023-01-08T03:10:33.642Z,19.34
2023-01-08T03:13:09.728Z,18.76
2023-01-08T03:15:47.023Z,18.46
2023-01-08T03:18:21.966Z,17.78
2023-01-08T03:20:51.908Z,17.68
2023-01-08T03:23:24.039Z,18.81
2023-01-08T03:25:51.909Z,18.07
2023-01-08T03:28:30.178Z,17.71
2023-01-08T03:31:00.528Z,19.01
2023-01-08T03:33:31.720Z,19.26
2023-01-08T03:36:04.776Z,19.81
2023-01-08T03:38:38.710Z,20.85
2023-01-08T03:41:12.699Z,20.26
2023-01-08T03:43:42.146Z,20.33
2023-01-08T03:46:17.502Z,20.53
2023-01-08T03:48:48.101Z,21.20
2023-01-08T03:51:16.056Z,21.26
2023-01-08T03:53:44.012Z,22.44
2023-01-08T03:56:11.885Z,21.51
2023-01-08T03:58:41.143Z,23.35
2023-01-08T04:01:09.169Z,23.83
2023-01-08T04:03:38.676Z,23.83
2023-01-08T04:06:06.935Z,24.10
2023-01-08T04:08:34.893Z,24.65
2023-01-08T04:11:02.813Z,24.50
2023-01-08T04:13:30.666Z,24.57
2023-01-08T04:15:59.951Z,23.59
2023-01-08T04:18:27.904Z,24.78
2023-01-08T04:20:55.861Z,25.72
2023-01-08T04:23:23.794Z,24.94
2023-01-08T04:25:51.707Z,24.89
2023-01-08T04:28:20.097Z,24.26
2023-01-08T04:30:48.011Z,24.95
2023-01-08T04:33:17.837Z,24.75
2023-01-08T04:35:45.710Z,24.21
2023-01-08T04:38:13.646Z,24.32
2023-01-08T04:40:41.669Z,24.75
2023-01-08T04:43:09.566Z,23.84
2023-01-08T04:45:37.412Z,24.19
2023-01-08T04:48:05.699Z,23.60
2023-01-08T04:50:34.935Z,23.29
2023-01-08T04:53:02.802Z,23.44
2023-01-08T04:55:30.694Z,23.23
2023-01-08T04:57:58.605Z,23.69
2023-01-08T05:00:26.722Z,22.84
2023-01-08T05:02:54.745Z,22.37
2023-01-08T05:05:22.746Z,22.42
2023-01-08T05:07:52.099Z,21.83
2023-01-08T05:10:20.027Z,21.40
2023-01-08T05:12:47.931Z,21.19
2023-01-08T05:15:15.929Z,20.80
2023-01-08T05:17:43.785Z,20.47
2023-01-08T05:20:12.427Z,19.83
2023-01-08T05:22:40.315Z,19.98
2023-01-08T05:25:10.182Z,19.86
2023-01-08T05:27:38.088Z,19.56
2023-01-08T05:30:07.257Z,20.81
2023-01-08T05:32:35.137Z,18.85
2023-01-08T05:35:02.984Z,17.94
2023-01-08T05:37:30.838Z,18.31
2023-01-08T05:39:58.674Z,18.39
2023-01-08T05:42:27.947Z,17.57
2023-01-08T05:44:55.819Z,17.18
2023-01-08T05:47:23.675Z,16.81
2023-01-08T05:49:51.593Z,18.66
2023-01-08T05:52:19.434Z,18.65
2023-01-08T05:54:47.257Z,18.63
2023-01-08T05:57:15.141Z,18.16
2023-01-08T05:59:44.403Z,19.23
2023-01-08T06:02:12.527Z,19.81
2023-01-08T06:04:40.471Z,19.90
2023-01-08T06:07:08.366Z,19.62
2023-01-08T06:09:36.238Z,20.21
2023-01-08T06:12:04.253Z,20.71
2023-01-08T06:14:32.141Z,19.92
2023-01-08T06:17:01.394Z,20.09
2023-01-08T06:19:29.300Z,20.03
2023-01-08T06:21:57.623Z,20.22
2023-01-08T06:24:25.616Z,19.37
2023-01-08T06:26:53.441Z,18.73
2023-01-08T06:29:21.553Z,18.54
2023-01-08T06:31:49.469Z,17.34
2023-01-08T06:34:18.701Z,18.91
2023-01-08T06:36:46.605Z,18.01
2023-01-08T06:39:14.986Z,17.68
2023-01-08T06:41:43.916Z,16.92
2023-01-08T06:44:11.935Z,16.46
2023-01-08T06:46:40.325Z,16.11
2023-01-08T06:49:09.254Z,15.96
2023-01-08T06:51:38.533Z,16.29
2023-01-08T06:54:06.572Z,16.75
2023-01-08T06:56:45.484Z,16.08
2023-01-08T06:59:16.927Z,15.67
2023-01-08T07:01:44.947Z,15.89
2023-01-08T07:04:12.996Z,15.81
2023-01-08T07:06:42.234Z,16.71
2023-01-08T07:09:13.016Z,17.26
2023-01-08T07:11:40.934Z,16.80
2023-01-08T07:14:09.421Z,16.52
2023-01-08T07:16:37.541Z,16.96
2023-01-08T07:19:05.598Z,16.99
2023-01-08T07:21:33.470Z,17.62
2023-01-08T07:24:02.774Z,17.95
2023-01-08T07:26:30.685Z,17.99
2023-01-08T07:28:58.694Z,23.27
2023-01-08T07:31:26.964Z,19.37
2023-01-08T07:33:54.889Z,17.60
2023-01-08T07:36:24.289Z,18.26
2023-01-08T07:38:52.178Z,17.77
2023-01-08T07:41:21.420Z,18.04
2023-01-08T07:43:49.933Z,17.69
2023-01-08T07:46:17.845Z,17.92
2023-01-08T07:48:45.741Z,20.47
2023-01-08T07:51:13.642Z,18.03
2023-01-08T07:53:41.587Z,21.78
2023-01-08T07:56:11.654Z,22.15
2023-01-08T07:58:40.874Z,28.76
2023-01-08T08:01:12.294Z,19.29
2023-01-08T08:03:40.719Z,17.18
2023-01-08T08:06:10.713Z,18.32
2023-01-08T08:08:40.292Z,17.26
2023-01-08T08:11:09.863Z,23.27
2023-01-08T08:13:42.457Z,24.98
2023-01-08T08:16:12.901Z,25.09
2023-01-08T08:18:40.782Z,23.57
2023-01-08T08:21:08.783Z,19.14
2023-01-08T08:23:37.007Z,17.21
2023-01-08T08:26:05.655Z,18.12
2023-01-08T08:28:33.530Z,17.45
2023-01-08T08:31:01.398Z,17.67
2023-01-08T08:33:30.943Z,17.71
2023-01-08T08:35:58.803Z,16.29
2023-01-08T08:38:27.238Z,15.95
2023-01-08T08:40:55.079Z,15.50
2023-01-08T08:43:22.998Z,15.65
2023-01-08T08:45:50.864Z,17.28
2023-01-08T08:48:18.735Z,16.39
2023-01-08T08:50:47.959Z,16.29
2023-01-08T08:53:15.862Z,16.00
2023-01-08T08:55:43.793Z,16.18
2023-01-08T08:58:14.311Z,16.39
2023-01-08T09:00:44.183Z,17.93
2023-01-08T09:03:14.911Z,17.28
2023-01-08T09:05:44.031Z,15.86
2023-01-08T09:08:13.892Z,16.33
2023-01-08T09:10:43.548Z,17.53
2023-01-08T09:13:11.539Z,16.92
2023-01-08T09:15:40.208Z,17.38
2023-01-08T09:18:08.078Z,18.00
2023-01-08T09:20:36.016Z,16.44
2023-01-08T09:23:04.136Z,17.34
2023-01-08T09:25:33.583Z,16.85
2023-01-08T09:28:02.525Z,16.88
2023-01-08T09:30:30.968Z,18.29
2023-01-08T09:33:02.294Z,16.97
2023-01-08T09:35:31.556Z,16.51
2023-01-08T09:38:00.194Z,15.26
2023-01-08T09:40:36.735Z,16.11
2023-01-08T09:43:06.775Z,17.03
2023-01-08T09:45:39.289Z,17.63
2023-01-08T09:48:13.624Z,17.34
2023-01-08T09:50:41.574Z,16.86
2023-01-08T09:53:15.139Z,15.16
2023-01-08T09:55:46.049Z,14.66
2023-01-08T09:58:27.902Z,14.94
2023-01-08T10:00:56.864Z,18.18
2023-01-08T10:03:31.794Z,18.13
2023-01-08T10:05:59.674Z,17.09
2023-01-08T10:08:27.497Z,15.10
2023-01-08T10:10:56.981Z,14.25
2023-01-08T10:13:24.871Z,14.27
2023-01-08T10:15:53.258Z,15.04
2023-01-08T10:18:27.053Z,13.39
2023-01-08T10:20:55.015Z,13.70
2023-01-08T10:23:23.933Z,13.36
2023-01-08T10:25:55.644Z,13.48
2023-01-08T10:28:26.819Z,13.79
2023-01-08T10:30:59.724Z,14.44
2023-01-08T10:33:33.071Z,14.36
2023-01-08T10:36:04.351Z,15.24
2023-01-08T10:38:36.872Z,14.65
2023-01-08T10:41:10.179Z,14.81
2023-01-08T10:43:52.492Z,15.29
2023-01-08T10:46:25.768Z,16.38
2023-01-08T10:48:58.434Z,16.06
2023-01-08T10:51:29.063Z,15.02
2023-01-08T10:54:01.049Z,15.05
2023-01-08T10:56:31.971Z,14.26
2023-01-08T10:59:01.239Z,14.46
2023-01-08T11:01:32.589Z,14.73
2023-01-08T11:04:03.317Z,14.42
2023-01-08T11:06:34.297Z,13.93
2023-01-08T11:09:05.782Z,14.88
2023-01-08T11:11:36.283Z,14.37
2023-01-08T11:14:21.121Z,13.69
2023-01-08T11:16:50.104Z,13.93
2023-01-08T11:19:23.789Z,13.78
2023-01-08T11:22:00.794Z,13.42
2023-01-08T11:24:32.328Z,12.32
2023-01-08T11:27:09.849Z,13.28
2023-01-08T11:29:45.977Z,13.09
2023-01-08T11:32:31.293Z,12.89
2023-01-08T11:35:07.976Z,13.36
2023-01-08T11:37:39.811Z,13.15
2023-01-08T11:40:15.614Z,13.43
2023-01-08T11:43:07.240Z,13.17
2023-01-08T11:45:53.083Z,12.64
2023-01-08T11:48:36.105Z,12.88
2023-01-08T11:51:32.599Z,14.23
2023-01-08T11:54:14.431Z,15.86
2023-01-08T11:57:02.642Z,14.60
2023-01-08T11:59:45.241Z,13.99
2023-01-08T12:02:23.455Z,13.27
2023-01-08T12:05:20.085Z,12.53
2023-01-08T12:07:59.908Z,11.58
2023-01-08T12:10:39.769Z,11.85
2023-01-08T12:13:26.206Z,11.45
2023-01-08T12:16:10.518Z,11.91
2023-01-08T12:18:57.370Z,13.16
2023-01-08T12:21:33.424Z,12.42
2023-01-08T12:24:22.661Z,11.64
2023-01-08T12:27:02.405Z,11.25
2023-01-08T12:29:46.634Z,11.74
2023-01-08T12:32:30.464Z,12.11
2023-01-08T12:35:08.995Z,11.96
2023-01-08T12:37:45.228Z,10.65
2023-01-08T12:40:21.896Z,11.31
2023-01-08T12:43:00.059Z,11.53
2023-01-08T12:45:31.628Z,11.37
2023-01-08T12:48:05.640Z,13.37
2023-01-08T12:50:48.470Z,11.38
2023-01-08T12:53:22.617Z,12.15
2023-01-08T12:56:04.001Z,12.37
2023-01-08T12:58:43.652Z,12.86
2023-01-08T13:01:28.479Z,12.96
2023-01-08T13:03:59.972Z,14.11
2023-01-08T13:06:29.490Z,14.08
2023-01-08T13:09:01.643Z,12.01
2023-01-08T13:11:33.039Z,11.30
2023-01-08T13:14:04.817Z,11.38
2023-01-08T13:16:39.065Z,10.71
2023-01-08T13:19:09.175Z,11.10
2023-01-08T13:21:43.526Z,10.83
2023-01-08T13:24:36.420Z,10.68
2023-01-08T13:27:24.452Z,11.42
2023-01-08T13:29:53.035Z,11.38
2023-01-08T13:32:26.412Z,11.41
2023-01-08T13:35:18.975Z,11.06
2023-01-08T13:37:50.475Z,11.45
2023-01-08T13:40:39.287Z,11.62
2023-01-08T13:43:14.488Z,10.71
2023-01-08T13:45:44.051Z,10.48
2023-01-08T13:48:23.340Z,10.65
2023-01-08T13:50:52.482Z,10.02
2023-01-08T13:53:22.967Z,9.80
2023-01-08T13:55:58.312Z,9.59
2023-01-08T13:58:31.078Z,9.23
2023-01-08T14:01:02.742Z,8.90
2023-01-08T14:03:35.689Z,8.21
2023-01-08T14:06:08.351Z,7.96
2023-01-08T14:08:37.666Z,8.38
2023-01-08T14:11:06.101Z,8.08
2023-01-08T14:13:35.761Z,8.19
2023-01-08T14:16:07.076Z,7.74
2023-01-08T14:18:35.458Z,7.80
2023-01-08T14:21:03.957Z,7.89
2023-01-08T14:23:38.598Z,8.04
2023-01-08T14:26:10.435Z,9.15
2023-01-08T14:28:38.324Z,8.99
2023-01-08T14:31:06.465Z,8.67
2023-01-08T14:33:38.071Z,7.87
2023-01-08T14:36:09.345Z,8.41
2023-01-08T14:38:40.039Z,7.75
2023-01-08T14:41:13.980Z,8.07
2023-01-08T14:43:46.469Z,7.97
2023-01-08T14:46:24.950Z,7.90
2023-01-08T14:48:55.882Z,7.77
2023-01-08T14:51:27.363Z,8.08
2023-01-08T14:54:01.887Z,8.68
2023-01-08T14:56:33.664Z,7.87
2023-01-08T14:59:09.000Z,7.60
2023-01-08T15:01:37.628Z,7.66
2023-01-08T15:04:09.390Z,7.69
2023-01-08T15:06:37.434Z,6.90
2023-01-08T15:09:22.281Z,7.31
2023-01-08T15:11:54.911Z,7.98
2023-01-08T15:14:25.778Z,8.07
2023-01-08T15:16:57.903Z,7.98
2023-01-08T15:19:28.710Z,7.63
2023-01-08T15:22:01.236Z,7.73
2023-01-08T15:24:34.145Z,8.51
2023-01-08T15:27:10.083Z,8.30
2023-01-08T15:29:42.011Z,8.36
2023-01-08T15:32:13.660Z,8.73
2023-01-08T15:34:41.707Z,8.02
2023-01-08T15:37:10.077Z,7.96
2023-01-08T15:39:39.469Z,8.16
2023-01-08T15:42:37.741Z,9.41
2023-01-08T15:45:07.452Z,8.79
2023-01-08T15:47:35.302Z,7.77
2023-01-08T15:50:03.155Z,7.31
2023-01-08T15:52:34.917Z,7.71
2023-01-08T15:55:05.157Z,7.92
2023-01-08T15:57:33.110Z,7.48
2023-01-08T16:00:01.074Z,9.08
2023-01-08T16:02:28.962Z,7.99
2023-01-08T16:04:58.230Z,7.93
2023-01-08T16:07:26.095Z,7.52
2023-01-08T16:09:54.004Z,7.88
2023-01-08T16:12:23.274Z,8.35
2023-01-08T16:14:51.176Z,8.01
2023-01-08T16:17:19.110Z,8.76
2023-01-08T16:19:47.049Z,8.05
2023-01-08T16:22:14.938Z,7.59
2023-01-08T16:24:42.885Z,7.47
2023-01-08T16:27:10.765Z,7.52
2023-01-08T16:29:40.039Z,7.23
2023-01-08T16:32:07.943Z,7.15
2023-01-08T16:34:36.049Z,9.34
2023-01-08T16:37:03.981Z,11.73
2023-01-08T16:39:32.344Z,8.09
2023-01-08T16:42:00.400Z,8.04
2023-01-08T16:44:29.556Z,7.13
2023-01-08T16:47:01.124Z,7.33
2023-01-08T16:49:29.445Z,6.93
2023-01-08T16:51:57.327Z,7.43
2023-01-08T16:54:27.305Z,7.05
2023-01-08T16:56:55.514Z,7.23
2023-01-08T16:59:24.608Z,7.53
2023-01-08T17:01:52.628Z,7.71
2023-01-08T17:04:23.340Z,7.51
2023-01-08T17:06:51.220Z,8.04
2023-01-08T17:09:19.105Z,8.14
2023-01-08T17:11:47.742Z,8.57
2023-01-08T17:14:16.226Z,8.99
2023-01-08T17:16:45.311Z,9.29
2023-01-08T17:19:13.349Z,8.90
2023-01-08T17:21:42.826Z,9.34
2023-01-08T17:24:11.166Z,9.19
2023-01-08T17:26:39.178Z,8.70
2023-01-08T17:29:07.041Z,9.45
2023-01-08T17:31:40.000Z,9.51
2023-01-08T17:34:09.417Z,9.68
2023-01-08T17:36:37.326Z,9.53
2023-01-08T17:39:06.657Z,10.09
2023-01-08T17:41:54.387Z,9.92
2023-01-08T17:44:22.492Z,10.07
2023-01-08T17:46:50.432Z,9.85
2023-01-08T17:49:19.329Z,9.97
2023-01-08T17:51:47.271Z,9.86
2023-01-08T17:54:19.078Z,10.16
2023-01-08T17:56:49.032Z,10.38
2023-01-08T17:59:20.078Z,10.16
2023-01-08T18:01:48.716Z,10.32
2023-01-08T18:04:17.345Z,10.09
2023-01-08T18:06:45.637Z,10.31
2023-01-08T18:09:13.909Z,10.52
2023-01-08T18:11:49.577Z,10.25
2023-01-08T18:14:17.947Z,10.78
2023-01-08T18:16:46.181Z,10.74
2023-01-08T18:19:15.805Z,10.86
2023-01-08T18:21:43.990Z,11.00
2023-01-08T18:24:12.395Z,11.32
2023-01-08T18:26:40.601Z,11.01
2023-01-08T18:29:10.661Z,11.26
2023-01-08T18:31:38.637Z,11.08
2023-01-08T18:34:06.614Z,11.52
2023-01-08T18:36:34.589Z,10.91
2023-01-08T18:39:02.571Z,11.35
2023-01-08T18:41:47.880Z,11.19
2023-01-08T18:44:20.457Z,11.71
2023-01-08T18:46:58.887Z,11.58
2023-01-08T18:49:27.852Z,11.65
2023-01-08T18:51:55.832Z,11.49
2023-01-08T18:54:23.806Z,11.65
2023-01-08T18:56:52.226Z,11.93
2023-01-08T18:59:21.572Z,11.77
2023-01-08T19:01:49.559Z,11.82
2023-01-08T19:04:19.229Z,12.19
2023-01-08T19:06:47.683Z,11.66
2023-01-08T19:09:16.362Z,12.06
2023-01-08T19:11:44.492Z,11.54
2023-01-08T19:14:14.246Z,11.72
2023-01-08T19:17:29.434Z,11.64
2023-01-08T19:39:53.028Z,12.36
2023-01-08T19:42:39.809Z,12.42
2023-01-08T19:45:08.384Z,11.46
2023-01-08T19:47:36.297Z,11.37
2023-01-08T19:50:04.350Z,11.49
2023-01-08T19:52:32.249Z,10.97
2023-01-08T19:55:01.564Z,11.63
2023-01-08T19:57:30.916Z,11.39
2023-01-08T19:59:58.811Z,11.57
2023-01-08T20:02:26.861Z,12.07
2023-01-08T20:04:54.843Z,12.49
2023-01-08T20:07:22.776Z,11.98
2023-01-08T20:09:50.672Z,11.70
2023-01-08T20:12:18.661Z,12.13
2023-01-08T20:14:48.078Z,12.01
2023-01-08T20:17:18.433Z,11.44
2023-01-08T20:19:48.366Z,11.74
2023-01-08T20:22:17.948Z,11.91
2023-01-08T20:24:46.076Z,11.27
2023-01-08T20:27:14.092Z,11.69
2023-01-08T20:29:42.235Z,11.42
2023-01-08T20:32:11.763Z,11.65
2023-01-08T20:34:40.539Z,11.46
2023-01-08T20:37:08.414Z,12.35
2023-01-08T20:39:36.449Z,12.83
2023-01-08T20:42:05.189Z,12.59
2023-01-08T20:44:34.260Z,13.21
2023-01-08T20:47:02.970Z,13.67
2023-01-08T20:49:32.232Z,13.42
2023-01-08T20:52:01.016Z,13.10
2023-01-08T20:54:30.701Z,12.97
2023-01-08T20:57:00.427Z,12.94
2023-01-08T20:59:28.981Z,13.12
2023-01-08T21:01:57.292Z,12.41
2023-01-08T21:04:25.882Z,12.85
2023-01-08T21:06:55.265Z,12.82
2023-01-08T21:09:23.233Z,13.31
2023-01-08T21:11:51.316Z,13.40
2023-01-08T21:14:19.225Z,12.90
2023-01-08T21:16:47.295Z,13.24
2023-01-08T21:19:15.509Z,13.41
2023-01-08T21:21:43.417Z,13.51
2023-01-08T21:24:14.126Z,13.64
2023-01-08T21:26:42.112Z,13.66
2023-01-08T21:29:11.517Z,13.76
2023-01-08T21:31:41.810Z,13.37
2023-01-08T21:34:16.026Z,13.13
2023-01-08T21:36:44.044Z,13.36
2023-01-08T21:39:13.434Z,13.20
2023-01-08T21:42:06.945Z,13.20
2023-01-08T21:44:54.589Z,13.74
2023-01-08T21:47:22.507Z,13.34
2023-01-08T21:49:50.429Z,13.61
2023-01-08T21:52:35.864Z,13.19
2023-01-08T21:55:06.431Z,13.27
2023-01-08T21:57:39.256Z,13.93
2023-01-08T22:00:08.656Z,13.03
2023-01-08T22:02:37.059Z,13.67
2023-01-08T22:05:06.117Z,13.77
2023-01-08T22:07:33.995Z,13.57
2023-01-08T22:10:02.883Z,13.83
2023-01-08T22:12:32.126Z,14.02
2023-01-08T22:15:00.022Z,14.83
2023-01-08T22:17:31.498Z,14.01
2023-01-08T22:20:01.145Z,13.99
2023-01-08T22:22:29.137Z,14.67
2023-01-08T22:24:56.998Z,14.74
2023-01-08T22:27:24.892Z,14.85
2023-01-08T22:29:54.558Z,15.26
2023-01-08T22:32:22.461Z,15.24
2023-01-08T22:34:50.571Z,15.34
2023-01-08T22:37:21.566Z,15.25
2023-01-08T22:39:49.964Z,15.20
2023-01-08T22:42:18.272Z,15.24
2023-01-08T22:44:46.124Z,15.62
2023-01-08T22:47:15.385Z,15.10
2023-01-08T22:49:43.265Z,14.84
2023-01-08T22:52:11.394Z,15.31
2023-01-08T22:54:39.852Z,14.70
2023-01-08T22:57:09.089Z,14.72
2023-01-08T22:59:37.070Z,14.67
2023-01-08T23:02:04.995Z,14.93
2023-01-08T23:04:34.367Z,15.32
2023-01-08T23:07:02.242Z,15.05
2023-01-08T23:09:30.251Z,15.37
2023-01-08T23:11:58.177Z,15.28
2023-01-08T23:14:26.132Z,15.58
2023-01-08T23:16:54.035Z,15.51
2023-01-08T23:19:21.918Z,14.98
2023-01-08T23:21:51.205Z,14.72
2023-01-08T23:24:19.099Z,14.70
2023-01-08T23:26:47.004Z,14.85
2023-01-08T23:29:14.940Z,14.81
2023-01-08T23:31:44.137Z,14.78
2023-01-08T23:34:12.323Z,15.19
2023-01-08T23:36:40.752Z,14.40
2023-01-08T23:39:11.151Z,14.55
2023-01-08T23:41:39.894Z,14.62
2023-01-08T23:44:09.640Z,14.44
2023-01-08T23:46:37.736Z,14.21
2023-01-08T23:49:06.405Z,13.54
2023-01-08T23:51:34.508Z,13.24
2023-01-08T23:54:02.507Z,13.19
2023-01-08T23:56:31.847Z,13.16
2023-01-08T23:58:59.845Z,13.61
